createdAt,value
2022-12-31T00:00:07.780Z,17.90
2022-12-31T00:02:34.354Z,18.25
2022-12-31T00:05:00.932Z,16.05
2022-12-31T00:07:27.410Z,18.52
2022-12-31T00:09:53.824Z,18.80
2022-12-31T00:12:20.278Z,21.00
2022-12-31T00:14:46.671Z,19.85
2022-12-31T00:17:13.141Z,22.75
2022-12-31T00:19:39.701Z,17.50
2022-12-31T00:22:06.116Z,19.20
2022-12-31T00:24:33.341Z,17.50
2022-12-31T00:26:59.974Z,18.42
2022-12-31T00:29:26.461Z,17.67
2022-12-31T00:31:52.867Z,18.02
2022-12-31T00:34:19.267Z,17.08
2022-12-31T00:36:46.195Z,18.05
2022-12-31T00:39:13.304Z,14.30
2022-12-31T00:41:39.914Z,15.77
2022-12-31T00:44:06.435Z,18.13
2022-12-31T00:46:32.979Z,19.40
2022-12-31T00:48:59.624Z,16.70
2022-12-31T00:51:28.746Z,13.57
2022-12-31T00:53:55.928Z,20.27
2022-12-31T00:56:22.993Z,16.38
2022-12-31T00:58:49.436Z,25.48
2022-12-31T01:01:23.263Z,16.70
2022-12-31T01:03:51.057Z,16.30
2022-12-31T01:06:17.844Z,16.67
2022-12-31T01:08:44.763Z,15.60
2022-12-31T01:11:38.717Z,12.32
2022-12-31T01:14:15.442Z,14.20
2022-12-31T01:16:43.328Z,12.27
2022-12-31T01:19:11.523Z,12.65
2022-12-31T01:21:38.744Z,16.30
2022-12-31T01:24:05.287Z,13.10
2022-12-31T01:26:32.046Z,12.32
2022-12-31T01:28:58.571Z,13.63
2022-12-31T01:31:25.443Z,12.88
2022-12-31T01:33:52.436Z,13.35
2022-12-31T01:36:25.646Z,14.73
2022-12-31T01:38:52.975Z,16.75
2022-12-31T01:41:21.224Z,12.48
2022-12-31T01:43:47.648Z,14.20
2022-12-31T01:46:24.871Z,13.13
2022-12-31T01:48:52.502Z,14.55
2022-12-31T01:51:19.524Z,13.43
2022-12-31T01:53:46.599Z,18.23
2022-12-31T01:56:13.124Z,13.10
2022-12-31T01:58:41.145Z,13.02
2022-12-31T02:01:08.117Z,12.18
2022-12-31T02:03:35.042Z,16.60
2022-12-31T02:06:05.247Z,10.88
2022-12-31T02:08:34.614Z,11.13
2022-12-31T02:11:18.705Z,14.15
2022-12-31T02:13:45.175Z,10.82
2022-12-31T02:16:21.887Z,17.35
2022-12-31T02:18:48.352Z,15.75
2022-12-31T02:21:30.342Z,12.20
2022-12-31T02:24:06.121Z,12.38
2022-12-31T02:26:35.345Z,13.38
2022-12-31T02:29:16.859Z,12.82
2022-12-31T02:32:01.950Z,11.25
2022-12-31T02:34:32.536Z,14.25
2022-12-31T02:37:00.225Z,10.77
2022-12-31T02:39:26.872Z,8.77
2022-12-31T02:41:53.959Z,11.43
2022-12-31T02:44:20.392Z,12.98
2022-12-31T02:46:51.642Z,12.32
2022-12-31T02:49:23.747Z,10.32
2022-12-31T02:51:54.282Z,9.50
2022-12-31T02:54:29.668Z,12.52
2022-12-31T02:56:56.055Z,13.88
2022-12-31T02:59:58.739Z,13.95
2022-12-31T03:02:27.932Z,12.98
2022-12-31T03:04:57.277Z,10.32
2022-12-31T03:07:24.927Z,14.82
2022-12-31T03:09:51.482Z,10.32
2022-12-31T03:12:37.438Z,8.57
2022-12-31T03:15:06.790Z,11.60
2022-12-31T03:17:33.965Z,9.93
2022-12-31T03:20:18.745Z,17.15
2022-12-31T03:22:45.213Z,11.32
2022-12-31T03:25:34.676Z,9.20
2022-12-31T03:28:02.106Z,9.50
2022-12-31T03:30:29.281Z,8.32
2022-12-31T03:32:58.743Z,13.57
2022-12-31T03:35:25.818Z,9.55
2022-12-31T03:37:52.438Z,11.65
2022-12-31T03:40:19.833Z,11.60
2022-12-31T03:42:46.301Z,9.63
2022-12-31T03:45:13.510Z,12.73
2022-12-31T03:47:40.052Z,18.65
2022-12-31T03:50:07.232Z,11.80
2022-12-31T03:52:33.773Z,16.60
2022-12-31T03:55:02.214Z,11.15
2022-12-31T03:57:29.080Z,12.50
2022-12-31T03:59:55.564Z,11.93
2022-12-31T04:02:28.054Z,11.45
2022-12-31T04:04:55.242Z,10.60
2022-12-31T04:07:21.736Z,11.60
2022-12-31T04:09:48.203Z,9.30
2022-12-31T04:12:14.751Z,11.35
2022-12-31T04:14:41.258Z,14.13
2022-12-31T04:17:07.730Z,9.77
2022-12-31T04:19:34.148Z,12.30
2022-12-31T04:22:00.726Z,9.93
2022-12-31T04:24:27.428Z,10.73
2022-12-31T04:26:53.821Z,9.70
2022-12-31T04:29:20.291Z,7.75
2022-12-31T04:31:46.846Z,7.72
2022-12-31T04:34:13.473Z,9.38
2022-12-31T04:36:39.959Z,11.75
2022-12-31T04:39:06.384Z,8.75
2022-12-31T04:41:32.899Z,10.70
2022-12-31T04:43:59.581Z,8.23
2022-12-31T04:46:27.958Z,16.52
2022-12-31T04:48:54.756Z,8.93
2022-12-31T04:51:21.257Z,15.60
2022-12-31T04:53:47.738Z,14.77
2022-12-31T04:56:14.918Z,12.25
2022-12-31T04:58:41.396Z,12.52
2022-12-31T05:01:08.047Z,13.43
2022-12-31T05:03:35.157Z,11.60
2022-12-31T05:06:02.915Z,12.18
2022-12-31T05:08:29.790Z,9.30
2022-12-31T05:10:56.337Z,7.30
2022-12-31T05:13:25.733Z,11.95
2022-12-31T05:15:55.912Z,12.13
2022-12-31T05:18:22.835Z,21.35
2022-12-31T05:20:49.504Z,17.98
2022-12-31T05:23:16.666Z,19.88
2022-12-31T05:25:43.988Z,12.23
2022-12-31T05:28:10.740Z,14.10
2022-12-31T05:30:37.282Z,12.00
2022-12-31T05:33:04.149Z,12.82
2022-12-31T05:35:30.636Z,10.68
2022-12-31T05:37:57.129Z,9.85
2022-12-31T05:40:23.618Z,8.65
2022-12-31T05:42:50.539Z,11.38
2022-12-31T05:45:18.453Z,7.40
2022-12-31T05:47:45.195Z,15.57
2022-12-31T05:50:12.475Z,9.40
2022-12-31T05:52:38.939Z,8.10
2022-12-31T05:55:05.652Z,9.38
2022-12-31T05:57:32.039Z,8.27
2022-12-31T05:59:58.429Z,9.43
2022-12-31T06:02:24.945Z,8.70
2022-12-31T06:04:51.518Z,14.27
2022-12-31T06:07:17.990Z,8.65
2022-12-31T06:09:44.416Z,7.22
2022-12-31T06:12:10.903Z,9.98
2022-12-31T06:14:42.201Z,9.05
2022-12-31T06:17:11.888Z,7.60
2022-12-31T06:19:38.302Z,10.20
2022-12-31T06:22:04.715Z,12.55
2022-12-31T06:24:31.139Z,12.05
2022-12-31T06:26:57.569Z,14.85
2022-12-31T06:29:24.014Z,11.63
2022-12-31T06:31:50.416Z,19.65
2022-12-31T06:34:16.883Z,15.15
2022-12-31T06:36:43.303Z,16.92
2022-12-31T06:39:09.770Z,11.63
2022-12-31T06:41:36.357Z,13.50
2022-12-31T06:44:02.913Z,9.55
2022-12-31T06:46:29.834Z,11.35
2022-12-31T06:48:56.390Z,13.80
2022-12-31T06:51:22.933Z,10.57
2022-12-31T06:53:50.158Z,14.07
2022-12-31T06:56:31.285Z,9.15
2022-12-31T06:59:00.046Z,10.65
2022-12-31T07:01:41.586Z,10.57
2022-12-31T07:04:08.101Z,11.90
2022-12-31T07:06:36.600Z,12.50
2022-12-31T07:09:03.108Z,17.20
2022-12-31T07:11:38.983Z,17.73
2022-12-31T15:49:15.294Z,44.30
2022-12-31T15:51:42.353Z,41.10
2022-12-31T16:09:26.224Z,64.47
2022-12-31T16:11:53.649Z,77.68
2022-12-31T16:14:22.510Z,72.43
2022-12-31T16:16:57.293Z,80.95
2022-12-31T16:19:41.077Z,69.38
2022-12-31T16:22:22.342Z,73.90
2022-12-31T16:25:28.986Z,77.03
2022-12-31T16:27:41.463Z,77.93
2022-12-31T16:30:18.174Z,75.72
2022-12-31T16:32:48.355Z,75.15
2022-12-31T16:35:23.634Z,106.85
2022-12-31T16:38:12.241Z,75.07
2022-12-31T16:40:39.525Z,85.15
2022-12-31T16:43:23.314Z,81.93
2022-12-31T16:45:50.017Z,86.75
2022-12-31T16:48:18.170Z,75.85
2022-12-31T16:50:45.696Z,81.30
2022-12-31T16:53:13.757Z,93.40
2022-12-31T16:55:40.703Z,98.03
2022-12-31T16:58:16.266Z,106.88
2022-12-31T17:00:43.034Z,108.07
2022-12-31T17:03:26.585Z,100.03
2022-12-31T17:05:55.150Z,118.45
2022-12-31T17:08:26.763Z,133.88
2022-12-31T17:10:53.442Z,127.47
2022-12-31T17:13:32.748Z,113.20
2022-12-31T17:15:59.891Z,94.03
2022-12-31T17:18:30.256Z,96.68
2022-12-31T17:21:04.315Z,102.63
2022-12-31T17:23:33.336Z,124.28
2022-12-31T17:26:13.049Z,105.30
2022-12-31T17:28:43.126Z,122.35
2022-12-31T17:31:28.398Z,113.40
2022-12-31T17:34:04.565Z,117.53
2022-12-31T17:36:30.980Z,109.75
2022-12-31T17:39:11.497Z,120.45
2022-12-31T17:41:37.990Z,146.48
2022-12-31T17:44:06.340Z,159.80
2022-12-31T17:46:42.182Z,187.60
2022-12-31T17:49:11.930Z,176.38
2022-12-31T17:51:42.516Z,156.88
2022-12-31T17:54:15.241Z,143.57
2022-12-31T17:56:42.363Z,137.80
2022-12-31T17:59:10.669Z,137.43
2022-12-31T18:01:38.051Z,131.30
2022-12-31T18:04:06.075Z,132.93
2022-12-31T18:06:33.243Z,145.50
2022-12-31T18:08:59.645Z,154.70
2022-12-31T18:11:26.781Z,146.55
2022-12-31T18:13:54.020Z,134.20
2022-12-31T18:16:22.191Z,122.93
2022-12-31T18:18:49.342Z,130.93
2022-12-31T18:21:26.090Z,109.30
2022-12-31T18:26:22.335Z,120.28
2022-12-31T18:28:51.776Z,156.63
2022-12-31T18:31:28.236Z,177.85
2022-12-31T18:33:55.769Z,156.77
2022-12-31T18:36:23.578Z,156.35
2022-12-31T18:38:50.043Z,179.70
2022-12-31T18:41:18.880Z,225.80
2022-12-31T18:43:45.621Z,254.00
2022-12-31T18:46:13.998Z,197.70
2022-12-31T18:48:44.237Z,384.20
2022-12-31T18:51:16.169Z,811.85
2022-12-31T18:56:11.767Z,146.85
2022-12-31T18:58:38.616Z,135.75
2022-12-31T19:01:05.272Z,150.32
2022-12-31T19:03:33.244Z,180.65
2022-12-31T19:05:59.785Z,193.65
2022-12-31T19:08:26.875Z,177.88
2022-12-31T19:10:53.826Z,171.65
2022-12-31T19:13:21.526Z,175.85
2022-12-31T19:15:49.425Z,185.10
2022-12-31T19:18:17.186Z,161.52
2022-12-31T19:20:43.666Z,165.18
2022-12-31T19:23:18.548Z,155.57
2022-12-31T19:25:46.658Z,135.07
2022-12-31T19:28:24.051Z,132.32
2022-12-31T19:30:50.657Z,130.52
2022-12-31T19:33:18.348Z,124.78
2022-12-31T19:35:45.006Z,112.40
2022-12-31T19:38:25.140Z,114.38
2022-12-31T19:40:52.375Z,109.50
2022-12-31T19:43:21.134Z,106.88
2022-12-31T19:45:48.204Z,99.20
2022-12-31T19:48:17.056Z,127.65
2022-12-31T19:50:45.076Z,141.60
2022-12-31T19:53:13.424Z,202.15
2022-12-31T19:55:40.857Z,194.85
2022-12-31T19:58:07.723Z,169.35
2022-12-31T20:00:34.951Z,164.32
2022-12-31T20:03:01.696Z,194.82
2022-12-31T20:05:29.514Z,184.63
2022-12-31T20:07:55.965Z,170.05
2022-12-31T20:10:23.097Z,170.05
2022-12-31T20:12:49.610Z,180.07
2022-12-31T20:15:16.843Z,134.40
2022-12-31T20:17:43.315Z,135.73
2022-12-31T20:20:10.634Z,114.70
2022-12-31T20:22:39.224Z,105.85
2022-12-31T20:25:06.827Z,118.38
2022-12-31T20:27:33.695Z,117.15
2022-12-31T20:30:00.996Z,119.70
2022-12-31T20:32:27.622Z,106.38
2022-12-31T20:34:54.773Z,106.95
2022-12-31T20:37:21.180Z,92.75
2022-12-31T20:39:48.974Z,93.07
2022-12-31T20:42:15.452Z,85.72
2022-12-31T20:44:42.979Z,78.88
2022-12-31T20:47:09.404Z,80.72
2022-12-31T20:50:09.804Z,70.18
2022-12-31T20:52:22.957Z,67.35
2022-12-31T20:54:50.110Z,59.10
2022-12-31T20:57:16.576Z,62.00
2022-12-31T20:59:43.061Z,57.97
2022-12-31T21:02:22.827Z,55.05
2022-12-31T21:04:53.079Z,59.40
2022-12-31T21:07:20.442Z,57.45
2022-12-31T21:09:46.944Z,50.88
2022-12-31T21:12:32.544Z,44.17
2022-12-31T21:14:59.045Z,46.67
2022-12-31T21:17:26.228Z,40.03
2022-12-31T21:19:52.706Z,38.70
2022-12-31T21:22:19.899Z,38.08
2022-12-31T21:24:46.319Z,34.10
2022-12-31T21:27:13.422Z,44.72
2022-12-31T21:30:01.993Z,36.63
2022-12-31T21:32:27.067Z,33.45
2022-12-31T21:35:23.124Z,36.83
2022-12-31T21:37:59.215Z,37.45
2022-12-31T21:40:27.228Z,47.70
2022-12-31T21:42:54.328Z,41.55
2022-12-31T21:45:20.760Z,46.53
2022-12-31T21:48:06.271Z,46.42
2022-12-31T21:50:32.816Z,44.25
2022-12-31T21:53:00.892Z,41.78
2022-12-31T21:55:45.860Z,39.30
2022-12-31T21:58:25.760Z,41.63
2022-12-31T22:01:12.648Z,37.47
2022-12-31T22:03:40.168Z,33.90
2022-12-31T22:06:14.263Z,30.15
2022-12-31T22:08:42.002Z,36.25
2022-12-31T22:11:08.923Z,31.70
2022-12-31T22:13:35.575Z,38.13
2022-12-31T22:16:05.608Z,39.95
2022-12-31T22:18:35.015Z,36.15
2022-12-31T22:21:09.602Z,35.28
2022-12-31T22:23:42.923Z,38.95
2022-12-31T22:26:12.842Z,39.72
2022-12-31T22:28:40.517Z,35.28
2022-12-31T22:31:12.540Z,32.60
2022-12-31T22:33:38.998Z,30.52
2022-12-31T22:36:07.115Z,32.17
2022-12-31T22:38:33.619Z,29.63
2022-12-31T22:41:10.880Z,30.30
2022-12-31T22:43:38.913Z,34.42
2022-12-31T22:46:06.326Z,30.80
2022-12-31T22:48:33.691Z,29.90
2022-12-31T22:51:00.208Z,36.15
2022-12-31T22:53:27.241Z,31.25
2022-12-31T22:55:54.471Z,32.67
2022-12-31T22:58:21.475Z,31.73
2022-12-31T23:00:47.953Z,36.97
2022-12-31T23:03:14.573Z,42.03
2022-12-31T23:05:42.055Z,40.47
2022-12-31T23:08:18.734Z,43.92
2022-12-31T23:11:03.510Z,70.70
2022-12-31T23:13:51.219Z,58.38
2022-12-31T23:16:37.848Z,54.92
2022-12-31T23:19:24.923Z,48.05
2022-12-31T23:22:10.365Z,48.42
2022-12-31T23:24:38.465Z,51.47
2022-12-31T23:27:05.091Z,41.38
2022-12-31T23:29:31.716Z,47.63
2022-12-31T23:31:58.846Z,46.72
2022-12-31T23:34:25.273Z,44.05
2022-12-31T23:36:52.381Z,46.45
2022-12-31T23:39:18.884Z,44.95
2022-12-31T23:41:45.977Z,46.70
2022-12-31T23:44:12.433Z,43.00
2022-12-31T23:46:39.885Z,44.22
2022-12-31T23:49:06.607Z,49.47
2022-12-31T23:51:33.740Z,44.33
2022-12-31T23:54:00.898Z,42.40
2022-12-31T23:56:27.932Z,46.53
2022-12-31T23:58:55.347Z,52.17
